Time;durP1;ratioP1;P1;durP2;ratioP2;P2;SDS_P1;SDS_P2;PMS_P1;PMS_P2;Temp;Humidity;BMP_temperature;BMP_pressure;BME280_temperature;BME280_humidity;BME280_pressure;Samples;Min_cycle;Max_cycle;Signal;HPM_P1;HPM_P2
2022/08/31 00:04:44;;;;;;;15.30;8.60;;;21.20;99.90;;;;;;5014766;28;20381;-72
2022/08/31 00:07:10;;;;;;;16.75;9.13;;;21.30;99.90;;;;;;5014864;28;20022;-72
2022/08/31 00:09:36;;;;;;;16.50;9.98;;;21.20;99.90;;;;;;5015091;28;20116;-72
2022/08/31 00:12:02;;;;;;;16.10;9.02;;;21.10;99.90;;;;;;5014801;28;20022;-73
2022/08/31 00:14:28;;;;;;;16.73;10.30;;;21.00;99.90;;;;;;5014659;28;20037;-72
2022/08/31 00:16:54;;;;;;;14.38;8.82;;;21.10;99.90;;;;;;5014924;28;20020;-73
2022/08/31 00:19:20;;;;;;;20.13;10.57;;;21.10;99.90;;;;;;5014702;28;20033;-73
2022/08/31 00:21:46;;;;;;;17.10;11.23;;;21.00;99.90;;;;;;5014776;28;20022;-73
2022/08/31 00:24:13;;;;;;;17.75;10.50;;;20.90;99.90;;;;;;5014631;28;20099;-70
2022/08/31 00:26:39;;;;;;;17.40;10.50;;;20.90;99.90;;;;;;5014501;28;20030;-73
2022/08/31 00:29:06;;;;;;;15.43;10.07;;;20.90;99.90;;;;;;5014598;28;20105;-72
2022/08/31 00:31:32;;;;;;;13.73;8.65;;;21.00;99.90;;;;;;5014519;28;20029;-73
2022/08/31 00:33:58;;;;;;;13.05;8.38;;;21.00;99.90;;;;;;5013219;28;20030;-72
2022/08/31 00:36:25;;;;;;;12.77;8.10;;;20.90;99.90;;;;;;5013135;28;20030;-73
2022/08/31 00:38:52;;;;;;;16.17;7.97;;;20.90;99.90;;;;;;5013095;28;20029;-73
2022/08/31 00:41:21;;;;;;;14.75;8.60;;;20.90;99.90;;;;;;5013214;28;20049;-73
2022/08/31 00:43:56;;;;;;;17.33;10.13;;;21.00;99.90;;;;;;5014383;28;20030;-72
2022/08/31 00:46:31;;;;;;;14.80;9.40;;;20.90;99.90;;;;;;5013054;28;20026;-73
2022/08/31 00:49:09;;;;;;;18.48;10.25;;;20.80;99.90;;;;;;5013797;28;20057;-71
2022/08/31 00:51:53;;;;;;;15.77;10.60;;;20.70;99.90;;;;;;5014592;28;20073;-73
2022/08/31 00:54:24;;;;;;;18.10;11.68;;;20.80;99.90;;;;;;5014050;28;20069;-73
2022/08/31 00:56:50;;;;;;;18.30;11.30;;;20.60;99.90;;;;;;5012723;28;20471;-73
2022/08/31 00:59:18;;;;;;;17.05;10.73;;;20.60;99.90;;;;;;5012811;28;20026;-73
2022/08/31 01:01:44;;;;;;;15.77;10.50;;;20.60;99.90;;;;;;5013945;28;20026;-73
2022/08/31 01:04:10;;;;;;;23.42;10.30;;;;;;;;;;5014079;28;20097;-71
2022/08/31 01:06:37;;;;;;;12.18;8.20;;;20.60;99.90;;;;;;5013960;28;20037;-71
2022/08/31 01:09:04;;;;;;;14.15;8.93;;;20.60;99.90;;;;;;5013475;28;20022;-72
2022/08/31 01:11:32;;;;;;;17.67;9.02;;;20.60;99.90;;;;;;5013795;28;20034;-72
2022/08/31 01:13:58;;;;;;;14.85;10.60;;;20.60;99.90;;;;;;5012525;28;20096;-72
2022/08/31 01:16:37;;;;;;;16.58;9.57;;;20.60;99.90;;;;;;5012282;28;20385;-72
2022/08/31 01:19:12;;;;;;;16.08;11.02;;;20.60;99.90;;;;;;5012246;28;20030;-71
2022/08/31 01:21:46;;;;;;;16.50;10.38;;;20.60;99.90;;;;;;5012216;28;20045;-72
2022/08/31 01:24:13;;;;;;;18.00;9.85;;;20.50;99.90;;;;;;5012173;28;20026;-71
2022/08/31 01:26:39;;;;;;;16.55;10.18;;;20.50;99.90;;;;;;5012262;28;20026;-73
2022/08/31 01:29:06;;;;;;;17.70;10.45;;;20.40;99.90;;;;;;5012113;28;20594;-71
2022/08/31 01:31:41;;;;;;;19.58;11.68;;;20.30;99.90;;;;;;5012000;28;20045;-72
2022/08/31 01:34:08;;;;;;;16.70;10.77;;;20.40;99.90;;;;;;5012634;28;20046;-71
2022/08/31 01:36:36;;;;;;;18.13;11.45;;;20.30;99.90;;;;;;5013230;28;20026;-72
2022/08/31 01:39:04;;;;;;;17.67;10.95;;;20.30;99.90;;;;;;5012064;28;20022;-73
2022/08/31 01:41:30;;;;;;;15.95;11.07;;;20.30;99.90;;;;;;5013084;28;20647;-73
2022/08/31 01:43:56;;;;;;;18.95;11.27;;;20.40;99.90;;;;;;5011651;28;20481;-72
2022/08/31 01:46:24;;;;;;;18.15;11.20;;;20.30;99.90;;;;;;5013241;28;20629;-69
2022/08/31 01:48:51;;;;;;;17.25;10.43;;;20.40;99.90;;;;;;5012671;28;20378;-72
2022/08/31 01:51:20;;;;;;;14.07;9.52;;;20.40;99.90;;;;;;5011845;28;20022;-70
2022/08/31 01:53:48;;;;;;;17.25;10.55;;;20.40;99.90;;;;;;5012718;28;20038;-71
2022/08/31 01:56:24;;;;;;;16.60;10.02;;;20.40;99.90;;;;;;5012867;28;20026;-72
2022/08/31 01:58:50;;;;;;;16.02;10.13;;;20.40;99.90;;;;;;5012878;28;20036;-72
2022/08/31 02:01:42;;;;;;;17.63;10.10;;;20.30;99.90;;;;;;5031551;28;20030;-72
2022/08/31 02:04:09;;;;;;;16.98;9.95;;;20.40;99.90;;;;;;5021466;28;20191;-71
2022/08/31 02:06:36;;;;;;;18.17;11.75;;;20.30;99.90;;;;;;5011237;28;20045;-72
2022/08/31 02:09:05;;;;;;;18.38;10.95;;;20.20;99.90;;;;;;5028069;28;20036;-72
2022/08/31 02:11:32;;;;;;;20.95;12.57;;;20.30;99.90;;;;;;5012607;28;20464;-72
2022/08/31 02:13:58;;;;;;;20.35;10.48;;;20.30;99.90;;;;;;5011389;28;20050;-71
2022/08/31 02:16:23;;;;;;;17.13;10.32;;;20.20;99.90;;;;;;5012657;28;20033;-73
2022/08/31 02:18:50;;;;;;;16.98;11.20;;;20.20;99.90;;;;;;5012648;28;20036;-73
2022/08/31 02:21:16;;;;;;;24.83;12.25;;;20.20;99.90;;;;;;5011519;28;20463;-72
2022/08/31 02:23:42;;;;;;;17.30;11.07;;;20.30;99.90;;;;;;5011386;28;20026;-73
2022/08/31 02:26:08;;;;;;;18.45;10.60;;;20.30;99.90;;;;;;5011420;28;20037;-73
2022/08/31 02:28:34;;;;;;;17.98;11.43;;;20.20;99.90;;;;;;5011121;28;20030;-73
2022/08/31 02:31:01;;;;;;;18.08;12.35;;;20.20;99.90;;;;;;5011548;28;20029;-72
2022/08/31 02:33:29;;;;;;;20.00;12.18;;;20.10;99.90;;;;;;5011435;28;20105;-73
2022/08/31 02:35:56;;;;;;;24.73;13.48;;;;;;;;;;5011209;28;20120;-72
2022/08/31 02:38:26;;;;;;;18.75;10.90;;;20.10;99.90;;;;;;5011121;28;20103;-73
2022/08/31 02:40:52;;;;;;;18.73;11.27;;;20.10;99.90;;;;;;5027550;28;20477;-70
2022/08/31 02:43:18;;;;;;;15.70;9.60;;;20.00;99.90;;;;;;5012698;28;20399;-73
2022/08/31 02:45:44;;;;;;;21.48;10.27;;;20.10;99.90;;;;;;5015140;28;20120;-71
2022/08/31 02:48:16;;;;;;;18.83;11.23;;;20.10;99.90;;;;;;5014948;28;20503;-72
2022/08/31 02:50:47;;;;;;;17.55;12.32;;;20.10;99.90;;;;;;5015036;28;20034;-72
2022/08/31 02:53:15;;;;;;;20.65;12.07;;;20.00;99.90;;;;;;5015191;28;20421;-73
2022/08/31 02:55:41;;;;;;;22.33;11.88;;;20.00;99.90;;;;;;5014814;28;20072;-72
2022/08/31 02:58:09;;;;;;;19.75;11.38;;;20.00;99.90;;;;;;5014572;28;20052;-71
2022/08/31 03:00:36;;;;;;;19.35;11.38;;;20.00;99.90;;;;;;5014858;28;20509;-72
2022/08/31 03:03:02;;;;;;;23.42;12.05;;;20.20;99.90;;;;;;5015894;28;20037;-72
2022/08/31 03:05:27;;;;;;;18.83;11.15;;;20.10;99.90;;;;;;5014982;28;20030;-73
2022/08/31 03:07:54;;;;;;;21.95;11.75;;;20.20;99.90;;;;;;5015885;28;20034;-73
2022/08/31 03:10:22;;;;;;;21.08;12.02;;;20.00;99.90;;;;;;5031154;28;20068;-72
2022/08/31 03:12:49;;;;;;;17.88;11.70;;;20.00;99.90;;;;;;5014269;28;20077;-72
2022/08/31 03:15:17;;;;;;;16.98;10.40;;;20.00;99.90;;;;;;5031022;28;20032;-73
2022/08/31 03:17:45;;;;;;;16.08;10.30;;;20.00;99.90;;;;;;5030696;28;20030;-72
2022/08/31 03:20:12;;;;;;;20.63;9.57;;;19.90;99.90;;;;;;5030763;28;20064;-68
2022/08/31 03:22:38;;;;;;;15.25;9.80;;;19.90;99.90;;;;;;5030699;28;20030;-73
2022/08/31 03:25:06;;;;;;;18.20;11.20;;;19.90;99.90;;;;;;5030749;28;20030;-74
2022/08/31 03:27:31;;;;;;;17.90;10.57;;;19.90;99.90;;;;;;5018755;28;20030;-73
2022/08/31 03:29:59;;;;;;;14.55;8.65;;;19.90;99.90;;;;;;5014186;28;20120;-73
2022/08/31 03:32:29;;;;;;;18.75;10.18;;;19.90;99.90;;;;;;5010083;28;20037;-71
2022/08/31 03:34:58;;;;;;;21.63;12.52;;;19.90;99.90;;;;;;5009588;28;20034;-73
2022/08/31 03:37:25;;;;;;;21.23;13.35;;;19.70;99.90;;;;;;5010170;28;20138;-69
2022/08/31 03:39:55;;;;;;;18.40;12.57;;;19.80;99.90;;;;;;5010654;28;20033;-63
2022/08/31 03:42:21;;;;;;;21.02;11.82;;;19.80;99.90;;;;;;5015320;28;20029;-69
2022/08/31 03:44:47;;;;;;;20.67;12.63;;;19.70;99.90;;;;;;5013941;28;20500;-73
2022/08/31 03:47:21;;;;;;;24.83;12.40;;;19.80;99.90;;;;;;5013877;28;20512;-71
2022/08/31 03:49:48;;;;;;;17.80;11.40;;;19.70;99.90;;;;;;5009663;28;20088;-73
2022/08/31 03:52:27;;;;;;;16.95;11.27;;;19.80;99.90;;;;;;4995874;28;20065;-66
2022/08/31 03:55:05;;;;;;;21.85;12.25;;;19.80;99.90;;;;;;5013314;28;20042;-72
2022/08/31 03:57:32;;;;;;;20.05;13.18;;;19.80;99.90;;;;;;5008696;28;20570;-73
2022/08/31 03:59:59;;;;;;;20.73;12.75;;;19.80;99.90;;;;;;4994777;28;20034;-73
2022/08/31 04:02:40;;;;;;;20.13;12.95;;;19.80;99.90;;;;;;4994129;28;20169;-71
2022/08/31 04:05:29;;;;;;;16.70;12.02;;;19.70;99.90;;;;;;4994074;28;20041;-72
2022/08/31 04:08:14;;;;;;;20.33;12.27;;;19.50;99.90;;;;;;4993440;28;20042;-72
2022/08/31 04:11:09;;;;;;;19.88;12.80;;;19.50;99.90;;;;;;4955467;28;20039;-73
2022/08/31 04:13:54;;;;;;;20.85;12.30;;;19.50;99.90;;;;;;4966214;28;20065;-69
2022/08/31 04:16:46;;;;;;;24.40;12.93;;;19.60;99.90;;;;;;4969849;28;20117;-71
2022/08/31 04:19:15;;;;;;;18.20;12.43;;;19.60;99.90;;;;;;4982862;28;20042;-65
2022/08/31 04:21:56;;;;;;;19.35;13.35;;;19.60;99.90;;;;;;4972603;28;20053;-72
2022/08/31 04:24:22;;;;;;;20.65;12.93;;;19.50;99.90;;;;;;4988566;28;20034;-72
2022/08/31 04:26:51;;;;;;;22.52;12.70;;;19.70;99.90;;;;;;4972592;28;20023;-73
2022/08/31 04:29:17;;;;;;;18.77;13.25;;;19.70;99.90;;;;;;4972849;28;20035;-69
2022/08/31 04:31:46;;;;;;;19.45;12.68;;;19.90;99.90;;;;;;4953268;29;20033;-70
2022/08/31 04:34:12;;;;;;;19.88;10.98;;;20.10;99.90;;;;;;4967777;28;20130;-70
2022/08/31 04:36:39;;;;;;;16.75;10.55;;;20.60;99.90;;;;;;4973962;28;20045;-71
2022/08/31 04:39:06;;;;;;;19.38;11.25;;;20.90;99.90;;;;;;4972737;28;20477;-67
2022/08/31 04:41:35;;;;;;;22.30;11.15;;;20.90;99.90;;;;;;4953117;29;20094;-71
2022/08/31 04:44:02;;;;;;;22.73;10.57;;;21.50;99.90;;;;;;4949787;28;20497;-71
2022/08/31 04:46:30;;;;;;;18.02;10.73;;;22.00;99.90;;;;;;4972358;28;20323;-70
2022/08/31 04:48:56;;;;;;;18.20;9.95;;;22.30;99.90;;;;;;5019265;28;20050;-70
2022/08/31 04:51:25;;;;;;;18.88;9.23;;;22.70;99.90;;;;;;5013880;28;20030;-70
2022/08/31 04:53:52;;;;;;;15.15;8.70;;;22.90;99.90;;;;;;5012403;28;20046;-70
2022/08/31 04:56:23;;;;;;;13.98;8.38;;;23.60;99.90;;;;;;5012453;28;20049;-69
2022/08/31 04:59:03;;;;;;;13.63;8.50;;;23.40;99.90;;;;;;5012122;28;20053;-70
2022/08/31 05:01:35;;;;;;;26.65;9.00;;;23.80;99.90;;;;;;5012647;28;20034;-70
2022/08/31 05:04:23;;;;;;;15.35;8.80;;;23.60;99.90;;;;;;5013812;28;20072;-69
2022/08/31 05:06:49;;;;;;;16.90;9.27;;;24.00;99.90;;;;;;5012191;28;20030;-70
2022/08/31 05:09:18;;;;;;;17.73;9.13;;;24.20;99.90;;;;;;5011828;28;20460;-70
2022/08/31 05:11:48;;;;;;;13.57;8.38;;;24.50;99.90;;;;;;5012446;28;20033;-71
2022/08/31 05:14:15;;;;;;;17.80;8.65;;;24.50;99.90;;;;;;5012106;28;20080;-71
2022/08/31 05:16:45;;;;;;;15.70;9.57;;;23.40;99.90;;;;;;5012272;28;20033;-71
2022/08/31 05:19:12;;;;;;;13.43;9.05;;;23.20;99.90;;;;;;5011840;28;20120;-71
2022/08/31 05:21:40;;;;;;;16.10;10.13;;;22.80;99.90;;;;;;5011638;28;20080;-71
2022/08/31 05:24:13;;;;;;;16.70;9.45;;;22.60;99.90;;;;;;5012122;28;20022;-69
2022/08/31 05:26:47;;;;;;;20.42;9.98;;;22.60;99.90;;;;;;5011537;28;20468;-70
2022/08/31 05:29:15;;;;;;;14.75;9.50;;;22.50;99.90;;;;;;5011838;28;20149;-69
2022/08/31 05:31:42;;;;;;;17.70;10.13;;;22.70;99.90;;;;;;5012115;28;20022;-70
2022/08/31 05:34:11;;;;;;;19.17;11.02;;;22.70;99.90;;;;;;5011587;28;20036;-70
2022/08/31 05:36:38;;;;;;;15.25;9.30;;;22.40;99.90;;;;;;5011690;28;20029;-69
2022/08/31 05:39:10;;;;;;;18.50;10.32;;;22.70;99.90;;;;;;5011731;28;20026;-70
2022/08/31 05:41:38;;;;;;;16.92;10.00;;;22.70;99.90;;;;;;5011752;28;20030;-71
2022/08/31 05:44:05;;;;;;;18.23;10.30;;;22.60;99.90;;;;;;5011752;28;21468;-70
2022/08/31 05:46:33;;;;;;;18.63;10.20;;;22.80;99.90;;;;;;5012038;28;20054;-71
2022/08/31 05:49:00;;;;;;;17.23;10.13;;;22.60;99.90;;;;;;5011270;28;20142;-71
2022/08/31 05:51:26;;;;;;;19.13;10.60;;;22.60;99.90;;;;;;5011662;28;20030;-70
2022/08/31 05:53:54;;;;;;;21.60;11.43;;;22.70;99.90;;;;;;5012680;28;20014;-70
2022/08/31 05:56:25;;;;;;;18.33;10.80;;;22.90;99.90;;;;;;5011875;28;20038;-71
2022/08/31 05:58:54;;;;;;;20.48;11.18;;;22.70;99.90;;;;;;5011599;28;20029;-70
2022/08/31 06:01:23;;;;;;;19.35;10.88;;;22.80;99.90;;;;;;5039446;28;20109;-71
2022/08/31 06:04:02;;;;;;;17.10;10.60;;;22.80;99.90;;;;;;5012764;28;20037;-70
2022/08/31 06:06:29;;;;;;;18.58;10.70;;;23.00;99.90;;;;;;5011702;28;20496;-71
2022/08/31 06:08:56;;;;;;;21.50;10.48;;;23.30;99.90;;;;;;5012527;28;20068;-71
2022/08/31 06:11:29;;;;;;;19.98;10.93;;;23.20;99.90;;;;;;5027891;28;20493;-70
2022/08/31 06:13:56;;;;;;;;;;;23.10;99.90;;;;;;5027854;28;20086;-69
2022/08/31 06:16:25;;;;;;;16.95;9.75;;;23.10;99.90;;;;;;5011440;28;20249;-70
2022/08/31 06:18:54;;;;;;;17.38;11.07;;;22.90;99.90;;;;;;5010931;28;20034;-70
2022/08/31 06:21:23;;;;;;;20.73;9.80;;;22.70;99.90;;;;;;5011173;28;20025;-71
2022/08/31 06:23:52;;;;;;;13.02;9.30;;;22.70;99.90;;;;;;5010906;28;20029;-70
2022/08/31 06:26:21;;;;;;;20.60;11.43;;;22.60;99.90;;;;;;5011450;28;20018;-69
2022/08/31 06:28:50;;;;;;;16.27;10.23;;;22.60;99.90;;;;;;5011109;28;20036;-69
2022/08/31 06:31:20;;;;;;;16.67;9.98;;;22.60;99.90;;;;;;5011200;28;20021;-71
2022/08/31 06:33:46;;;;;;;18.15;10.00;;;22.70;99.90;;;;;;5010867;28;20482;-71
2022/08/31 06:36:29;;;;;;;17.70;10.38;;;22.60;99.90;;;;;;5011289;28;20037;-70
2022/08/31 06:39:01;;;;;;;17.38;11.32;;;22.70;99.90;;;;;;5011087;28;20025;-70
2022/08/31 06:41:36;;;;;;;21.23;11.57;;;22.90;99.90;;;;;;5011259;28;20068;-70
2022/08/31 06:44:29;;;;;;;17.88;11.15;;;22.90;99.90;;;;;;5010556;28;20128;-69
2022/08/31 06:47:07;;;;;;;18.83;10.75;;;23.00;99.90;;;;;;5010735;28;20369;-69
2022/08/31 06:49:37;;;;;;;15.75;10.98;;;23.00;99.90;;;;;;5010649;28;20503;-69
2022/08/31 06:52:03;;;;;;;16.90;10.90;;;23.00;99.90;;;;;;5010571;28;20025;-70
2022/08/31 06:54:31;;;;;;;17.92;11.98;;;23.20;99.90;;;;;;5010186;28;20491;-68
2022/08/31 06:57:30;;;;;;;19.77;12.32;;;23.40;99.90;;;;;;4970278;28;20522;-71
2022/08/31 07:00:29;;;;;;;19.15;12.20;;;23.40;99.90;;;;;;4951395;29;20107;-71
2022/08/31 07:03:23;;;;;;;18.38;11.73;;;23.40;99.90;;;;;;4951098;29;20034;-71
2022/08/31 07:05:51;;;;;;;16.30;11.57;;;23.60;99.90;;;;;;4950779;29;20058;-70
2022/08/31 07:08:21;;;;;;;18.60;11.35;;;23.70;99.90;;;;;;4933880;29;20039;-71
2022/08/31 07:10:47;;;;;;;17.20;9.00;;;23.70;99.90;;;;;;4950029;29;20039;-69
2022/08/31 07:13:13;;;;;;;16.98;11.07;;;23.60;99.90;;;;;;4933741;29;20035;-70
2022/08/31 07:15:39;;;;;;;18.23;11.05;;;23.70;99.90;;;;;;4950666;29;20059;-70
2022/08/31 07:18:06;;;;;;;16.85;11.15;;;23.90;99.90;;;;;;4949927;29;20019;-70
2022/08/31 07:20:33;;;;;;;22.10;11.32;;;24.00;99.90;;;;;;4934223;29;20179;-70
2022/08/31 07:22:59;;;;;;;20.10;10.27;;;24.20;99.90;;;;;;4934646;29;20200;-70
2022/08/31 07:25:35;;;;;;;15.90;11.02;;;24.20;99.90;;;;;;4950427;29;20365;-70
2022/08/31 07:28:00;;;;;;;18.33;10.80;;;24.40;99.90;;;;;;4951440;29;20028;-70
2022/08/31 07:30:26;;;;;;;16.08;11.10;;;24.70;99.90;;;;;;4952040;28;20500;-70
2022/08/31 07:32:53;;;;;;;17.85;10.32;;;25.10;99.90;;;;;;4957995;28;20042;-70
2022/08/31 07:35:20;;;;;;;16.30;10.43;;;25.50;99.90;;;;;;4982199;28;20120;-71
2022/08/31 07:43:45;;;;;;;17.65;9.88;;;26.10;99.90;;;;;;4954241;29;20122;-69
2022/08/31 07:46:13;;;;;;;21.10;10.70;;;26.40;99.90;;;;;;4938650;29;20023;-69
2022/08/31 07:48:39;;;;;;;18.85;11.48;;;;;;;;;;4938044;29;20394;-71
2022/08/31 07:51:33;;;;;;;18.42;11.32;;;26.70;99.90;;;;;;4938718;29;20023;-70
2022/08/31 07:54:09;;;;;;;16.48;11.32;;;27.00;99.90;;;;;;4937960;29;20407;-69
2022/08/31 07:56:42;;;;;;;18.83;11.23;;;27.00;99.90;;;;;;4938427;29;20039;-71
2022/08/31 07:59:11;;;;;;;14.95;10.05;;;27.00;99.90;;;;;;4941858;29;20023;-71
2022/08/31 08:01:40;;;;;;;20.48;11.15;;;27.00;99.90;;;;;;4953381;29;20039;-70
2022/08/31 08:04:07;;;;;;;19.75;10.45;;;26.80;99.90;;;;;;4938172;29;20094;-72
2022/08/31 08:06:56;;;;;;;17.27;9.60;;;26.60;99.90;;;;;;4935061;29;20027;-72
2022/08/31 08:09:48;;;;;;;16.05;10.43;;;26.50;99.90;;;;;;4919597;29;20535;-71
2022/08/31 08:12:23;;;;;;;14.48;9.27;;;26.90;99.90;;;;;;4938471;29;20154;-71
2022/08/31 08:14:57;;;;;;;15.32;8.23;;;26.80;99.90;;;;;;4934321;29;20047;-71
2022/08/31 08:17:38;;;;;;;;;;;27.00;99.90;;;;;;4934006;29;20040;-68
2022/08/31 08:20:08;;;;;;;12.40;7.07;;;27.00;99.90;;;;;;4952761;28;19918;-72
2022/08/31 08:22:38;;;;;;;15.85;8.75;;;27.10;99.90;;;;;;4972929;28;20035;-71
2022/08/31 08:25:22;;;;;;;11.48;6.50;;;27.30;99.90;;;;;;4956956;28;20039;-70
2022/08/31 08:28:01;;;;;;;9.68;5.18;;;27.60;99.90;;;;;;4973194;28;20125;-70
2022/08/31 08:30:32;;;;;;;9.23;6.03;;;27.40;99.90;;;;;;4956704;28;20497;-72
2022/08/31 08:33:02;;;;;;;11.23;5.97;;;;;;;;;;4957015;28;20046;-71
2022/08/31 08:35:30;;;;;;;12.18;6.22;;;27.50;99.90;;;;;;4956758;28;20034;-72
2022/08/31 08:37:56;;;;;;;19.63;6.50;;;27.50;99.90;;;;;;4956937;28;20085;-73
2022/08/31 08:40:41;;;;;;;13.00;6.60;;;27.50;99.90;;;;;;4956585;28;20126;-70
2022/08/31 08:43:17;;;;;;;10.15;5.50;;;27.60;99.90;;;;;;4972140;28;20037;-72
2022/08/31 08:45:45;;;;;;;14.88;6.60;;;;;;;;;;5025894;28;20128;-71
2022/08/31 08:48:15;;;;;;;10.93;5.95;;;28.00;99.90;;;;;;5012780;28;20436;-72
2022/08/31 08:50:41;;;;;;;11.70;6.47;;;27.90;99.90;;;;;;5014367;28;20037;-72
2022/08/31 08:53:11;;;;;;;9.80;5.95;;;28.20;99.90;;;;;;5012755;28;20066;-71
2022/08/31 08:55:44;;;;;;;15.52;7.03;;;28.50;99.90;;;;;;5012947;28;20048;-73
2022/08/31 08:58:12;;;;;;;25.67;7.28;;;28.60;99.90;;;;;;5013203;28;20030;-73
2022/08/31 09:00:45;;;;;;;11.45;6.22;;;28.40;99.90;;;;;;5013105;28;20062;-73
2022/08/31 09:03:32;;;;;;;12.35;7.38;;;28.30;99.90;;;;;;5012610;28;20369;-72
2022/08/31 09:06:38;;;;;;;11.43;7.53;;;28.20;99.90;;;;;;5014245;28;20036;-70
2022/08/31 09:09:19;;;;;;;11.23;7.05;;;28.20;99.90;;;;;;5010122;28;20172;-69
2022/08/31 09:11:51;;;;;;;13.30;6.93;;;27.90;99.90;;;;;;5011555;28;20017;-72
2022/08/31 09:14:40;;;;;;;13.40;6.68;;;27.80;99.90;;;;;;5012137;28;20887;-71
2022/08/31 09:17:32;;;;;;;11.48;7.00;;;27.70;99.90;;;;;;5012233;28;20109;-72
2022/08/31 09:20:03;;;;;;;11.00;6.43;;;27.70;99.90;;;;;;5013960;28;20430;-73
2022/08/31 09:22:49;;;;;;;11.38;6.38;;;27.70;99.90;;;;;;5012134;28;20030;-72
2022/08/31 09:25:45;;;;;;;18.10;7.03;;;27.60;99.90;;;;;;5012222;28;20133;-72
2022/08/31 09:28:46;;;;;;;11.68;5.93;;;27.60;99.90;;;;;;5013626;28;20040;-73
2022/08/31 09:31:37;;;;;;;10.85;5.43;;;27.60;99.90;;;;;;5013567;28;20534;-73
2022/08/31 09:34:30;;;;;;;8.77;5.75;;;27.70;99.90;;;;;;4972028;28;20043;-73
2022/08/31 09:37:44;;;;;;;11.30;6.32;;;27.80;99.90;;;;;;4975928;28;20137;-73
2022/08/31 09:40:35;;;;;;;11.65;7.32;;;28.10;99.90;;;;;;4965102;28;20038;-73
2022/08/31 09:43:14;;;;;;;17.35;5.97;;;28.60;99.90;;;;;;4971486;28;20041;-73
2022/08/31 09:46:04;;;;;;;13.77;6.65;;;28.30;99.90;;;;;;4972106;28;20050;-64
2022/08/31 09:48:51;;;;;;;16.45;10.35;;;28.30;99.90;;;;;;4982492;28;20057;-64
2022/08/31 09:51:35;;;;;;;12.48;7.30;;;28.70;99.90;;;;;;4958595;28;20501;-65
2022/08/31 09:56:59;;;;;;;10.82;5.95;;;28.80;99.90;;;;;;4972195;28;20070;-72
2022/08/31 09:59:43;;;;;;;10.95;5.40;;;28.80;99.90;;;;;;4971377;28;20031;-65
2022/08/31 10:02:32;;;;;;;10.25;5.63;;;28.80;99.90;;;;;;4971128;28;20042;-64
2022/08/31 10:04:59;;;;;;;12.60;6.22;;;28.70;99.90;;;;;;4971396;28;20050;-66
2022/08/31 10:07:42;;;;;;;10.48;5.68;;;28.70;99.90;;;;;;4971405;28;20034;-64
2022/08/31 10:10:10;;;;;;;9.50;5.53;;;28.80;99.90;;;;;;4976735;28;20035;-72
2022/08/31 10:12:46;;;;;;;11.45;5.50;;;28.60;99.90;;;;;;5012534;28;20030;-72
2022/08/31 10:15:38;;;;;;;12.95;5.75;;;28.50;99.90;;;;;;5011786;28;20167;-71
2022/08/31 10:18:22;;;;;;;7.80;5.07;;;28.40;99.90;;;;;;5012108;28;20049;-70
2022/08/31 10:20:55;;;;;;;8.80;4.45;;;28.70;99.90;;;;;;5012321;28;20041;-72
2022/08/31 10:23:46;;;;;;;8.70;4.70;;;29.00;99.90;;;;;;5011877;28;20058;-74
2022/08/31 10:26:15;;;;;;;10.13;5.68;;;;;;;;;;5012440;28;20022;-70
2022/08/31 10:28:54;;;;;;;7.47;5.13;;;29.50;99.90;;;;;;5008304;28;20056;-73
2022/08/31 10:31:22;;;;;;;8.88;4.75;;;29.30;99.90;;;;;;5012601;28;20057;-73
2022/08/31 10:37:23;;;;;;;8.65;4.72;;;29.40;99.90;;;;;;5012457;28;20100;-70
2022/08/31 10:39:59;;;;;;;6.30;4.28;;;29.20;99.90;;;;;;5015993;28;20423;-72
2022/08/31 10:42:36;;;;;;;9.02;4.70;;;29.40;99.90;;;;;;5015632;28;20060;-72
2022/08/31 10:45:10;;;;;;;7.53;4.60;;;;;;;;;;5011788;28;20385;-72
2022/08/31 10:47:40;;;;;;;7.47;4.60;;;;;;;;;;5012077;28;20128;-71
2022/08/31 10:50:09;;;;;;;8.10;4.88;;;29.70;99.90;;;;;;5012292;28;20038;-72
2022/08/31 10:53:12;;;;;;;5.07;3.97;;;29.70;99.90;;;;;;5011872;28;20437;-72
2022/08/31 10:55:57;;;;;;;7.60;4.78;;;29.30;99.90;;;;;;5012731;28;20073;-72
2022/08/31 10:58:26;;;;;;;9.52;5.05;;;;;;;;;;5008539;28;20030;-73
2022/08/31 11:00:56;;;;;;;5.78;3.90;;;29.70;98.90;;;;;;5015130;28;20033;-73
2022/08/31 11:03:34;;;;;;;9.60;3.63;;;29.60;97.00;;;;;;5008505;28;20022;-71
2022/08/31 11:06:05;;;;;;;4.00;3.22;;;29.30;99.90;;;;;;5018683;28;20152;-67
2022/08/31 11:08:51;;;;;;;7.25;3.72;;;29.20;99.90;;;;;;5020101;28;20029;-70
2022/08/31 11:11:29;;;;;;;7.55;3.95;;;29.20;99.90;;;;;;5023839;28;20168;-70
2022/08/31 11:14:20;;;;;;;5.88;3.88;;;29.60;99.40;;;;;;5016083;28;20482;-70
2022/08/31 11:16:55;;;;;;;9.52;4.30;;;29.70;99.90;;;;;;5018999;28;20030;-71
2022/08/31 11:19:40;;;;;;;7.00;4.18;;;29.80;99.90;;;;;;5016281;28;20057;-73
2022/08/31 11:22:36;;;;;;;9.02;4.50;;;30.20;99.90;;;;;;5027730;28;20101;-71
2022/08/31 11:25:23;;;;;;;7.60;4.10;;;30.30;99.90;;;;;;5016149;28;20030;-70
2022/08/31 11:28:33;;;;;;;8.35;5.05;;;30.30;98.70;;;;;;5016214;28;20475;-71
2022/08/31 11:31:19;;;;;;;7.25;4.32;;;30.20;99.50;;;;;;4975044;28;20037;-72
2022/08/31 11:33:51;;;;;;;9.32;4.07;;;29.60;99.90;;;;;;4974316;28;20525;-73
2022/08/31 11:36:42;;;;;;;6.85;3.97;;;28.90;99.90;;;;;;4974710;28;20313;-73
2022/08/31 11:39:08;;;;;;;10.30;3.88;;;28.30;99.90;;;;;;4974277;28;20564;-73
2022/08/31 11:41:38;;;;;;;8.40;4.07;;;27.70;99.90;;;;;;4974107;28;20030;-68
2022/08/31 11:44:07;;;;;;;6.13;3.63;;;27.40;99.90;;;;;;4973632;28;20409;-64
2022/08/31 11:46:33;;;;;;;12.00;4.32;;;26.80;99.90;;;;;;4982651;28;20046;-71
2022/08/31 11:48:59;;;;;;;7.57;5.18;;;26.80;99.90;;;;;;4973119;28;20051;-72
2022/08/31 11:51:31;;;;;;;7.45;4.38;;;26.70;99.90;;;;;;4973782;28;20132;-72
2022/08/31 11:53:59;;;;;;;9.25;4.32;;;26.90;99.90;;;;;;4973762;28;20041;-69
2022/08/31 11:56:35;;;;;;;9.52;4.60;;;26.80;99.90;;;;;;4974408;28;20437;-72
2022/08/31 11:59:33;;;;;;;7.43;5.15;;;26.90;99.90;;;;;;4973584;28;20129;-69
2022/08/31 12:02:22;;;;;;;10.10;5.38;;;26.90;99.90;;;;;;4973570;28;20031;-63
2022/08/31 12:04:50;;;;;;;9.50;4.13;;;27.00;99.90;;;;;;4979077;28;20480;-63
2022/08/31 12:07:28;;;;;;;9.20;5.10;;;27.00;99.90;;;;;;5014943;28;20037;-63
2022/08/31 12:09:59;;;;;;;10.25;4.50;;;26.90;99.90;;;;;;5015343;28;20076;-63
2022/08/31 12:12:44;;;;;;;6.32;4.15;;;26.80;99.90;;;;;;5015039;28;20567;-70
2022/08/31 12:15:30;;;;;;;8.75;4.53;;;26.80;99.90;;;;;;5014109;28;20049;-71
2022/08/31 12:18:10;;;;;;;9.20;4.80;;;27.00;99.90;;;;;;5013722;28;20034;-70
2022/08/31 12:23:42;;;;;;;8.93;4.88;;;26.90;99.90;;;;;;5013784;28;20477;-70
2022/08/31 12:26:30;;;;;;;9.20;4.10;;;26.80;99.90;;;;;;5014923;28;20100;-66
2022/08/31 12:29:20;;;;;;;8.18;4.97;;;26.60;99.90;;;;;;5013730;28;20034;-70
2022/08/31 12:32:07;;;;;;;6.70;4.50;;;26.60;99.90;;;;;;5014576;28;20112;-71
2022/08/31 12:34:38;;;;;;;8.25;5.40;;;26.60;99.90;;;;;;5013659;28;20025;-70
2022/08/31 12:37:37;;;;;;;6.60;4.30;;;26.60;99.90;;;;;;5014258;28;20503;-70
2022/08/31 12:40:16;;;;;;;9.68;4.50;;;26.60;99.90;;;;;;4973318;28;20474;-71
2022/08/31 12:42:56;;;;;;;9.00;5.03;;;26.60;99.90;;;;;;4973315;28;20510;-70
2022/08/31 12:45:39;;;;;;;7.75;4.38;;;26.50;99.90;;;;;;4971681;28;20055;-71
2022/08/31 12:48:26;;;;;;;11.15;4.55;;;26.60;99.90;;;;;;4960375;28;20047;-70
2022/08/31 12:50:56;;;;;;;8.10;4.90;;;26.60;99.90;;;;;;4976231;28;20043;-70
2022/08/31 12:53:49;;;;;;;10.50;4.75;;;26.60;99.90;;;;;;4972417;28;20069;-71
2022/08/31 12:56:53;;;;;;;7.45;4.78;;;26.70;99.90;;;;;;4975993;28;20054;-67
2022/08/31 12:59:46;;;;;;;6.70;4.30;;;27.00;99.90;;;;;;4969748;28;20466;-71
2022/08/31 13:02:15;;;;;;;9.57;4.88;;;27.20;99.90;;;;;;4971151;28;20117;-69
2022/08/31 13:04:45;;;;;;;10.00;4.93;;;27.40;99.90;;;;;;4970433;28;20034;-71
2022/08/31 13:07:22;;;;;;;12.25;5.00;;;27.50;99.90;;;;;;4971170;28;20019;-70
2022/08/31 13:10:21;;;;;;;9.57;4.63;;;27.50;99.90;;;;;;4977904;28;20590;-67
2022/08/31 13:12:59;;;;;;;7.75;4.70;;;27.60;99.90;;;;;;4952002;29;20043;-72
2022/08/31 13:15:35;;;;;;;7.22;4.63;;;27.70;99.90;;;;;;4958125;28;20137;-73
2022/08/31 13:18:01;;;;;;;6.55;4.05;;;27.90;99.90;;;;;;4970827;28;20090;-71
2022/08/31 13:20:42;;;;;;;7.03;4.20;;;27.90;99.90;;;;;;4971613;28;20026;-70
2022/08/31 13:23:12;;;;;;;10.77;4.63;;;28.00;99.90;;;;;;4954667;28;20039;-67
2022/08/31 13:25:38;;;;;;;10.13;4.60;;;28.10;99.90;;;;;;4970999;28;20100;-72
2022/08/31 13:28:11;;;;;;;8.07;4.60;;;28.20;99.90;;;;;;4971048;28;20496;-69
2022/08/31 13:30:39;;;;;;;10.55;4.55;;;28.20;99.90;;;;;;4970103;28;20035;-71